ADDS METAR Data INFO
IDs: Format: Raw Decoded Include TAF

Data at: 0211 UTC 17 Aug 2018

PAFE 170156Z AUTO 27003KT 10SM FEW065 BKN090 14/08 A3016 RMK AO2 SLP224 T01440083
PAFE 162356Z AUTO 26006KT 10SM BKN065 14/09 A3016 RMK AO2 SLP226 T01390089 10161 20122 51001
PAFE 162156Z AUTO 26004KT 10SM OVC065 16/08 A3016 RMK AO2 SLP226 T01560083
PAFE 162056Z AUTO 26004KT 10SM FEW065 14/09 A3016 RMK AO2 SLP225 T01440094 51005
PAFE 161956Z AUTO 24006KT 10SM CLR 16/10 A3016 RMK AO2 SLP223 T01560100
PAFE 161756Z AUTO 27004KT 10SM BKN060 13/09 A3014 RMK AO2 SLP220 T01280089 10133 20089 53006
PAFE 161556Z AUTO 23003KT 10SM CLR 12/09 A3013 RMK AO2 SLP215 T01220089
PAFE 161456Z AUTO 05003KT 10SM OVC060 10/09 A3013 RMK AO2 SLP214 T01000089 53005
PAFE 161356Z AUTO 00000KT 10SM OVC060 09/08 A3012 RMK AO2 SLP211 T00890083
PAFE 161256Z AUTO 06004KT 10SM OVC060 09/08 A3011 RMK AO2 SLP208 T00940083
PAFE 161156Z AUTO 06004KT 10SM OVC060 09/09 A3011 RMK AO2 SLP209 T00940089 10117 20094 53001
PAFE 161056Z AUTO 06003KT 10SM OVC060 10/09 A3011 RMK AO2 SLP208 T01000089
PAFE 160756Z AUTO 00000KT 7SM OVC060 12/08 A3011 RMK AO2 SLP209 T01170083
PAFE 160656Z AUTO 02003KT 10SM OVC060 12/09 A3011 RMK AO2 SLP207 T01170089
PAFE 160456Z AUTO 00000KT 10SM OVC055 12/09 A3011 RMK AO2 SLP207 T01220089
PAFE 160356Z AUTO 35003KT 10SM OVC060 13/08 A3011 RMK AO2 SLP207 T01330083
PAFE 160256Z AUTO 30005KT 10SM OVC060 14/08 A3011 RMK AO2 SLP207 T01390078 56007
PAFE 160156Z AUTO VRB03KT 10SM OVC060 14/07 A3011 RMK AO2 SLP208 T01440072
PAFE 160056Z AUTO 27005KT 10SM OVC060 14/07 A3012 RMK AO2 SLP213 T01440067
PAFE 152056Z AUTO 29006KT 10SM OVC055 14/07 A3015 RMK AO2 SLP220 T01440072 51003
PAFE 151856Z AUTO VRB03KT 10SM OVC060 14/07 A3014 RMK AO2 SLP219 T01440067
PAFE 151656Z AUTO 16003KT 10SM OVC055 13/09 A3013 RMK AO2 SLP215 T01280094
PAFE 151556Z AUTO 00000KT 10SM OVC060 12/09 A3013 RMK AO2 SLP213 T01220089
PAFE 151456Z AUTO 07003KT 10SM OVC060 11/09 A3012 RMK AO2 SLP210 T01060094 53007